Time;durP1;ratioP1;P1;durP2;ratioP2;P2;SDS_P1;SDS_P2;PMS_P1;PMS_P2;Temp;Humidity;BMP_temperature;BMP_pressure;BME280_temperature;BME280_humidity;BME280_pressure;Samples;Min_cycle;Max_cycle;Signal;HPM_P1;HPM_P2
2023/02/14 00:02:16;;;;;;;1.23;0.50;;;11.70;68.70;;;;;;4980462;28;20100;-81
2023/02/14 00:04:44;;;;;;;0.98;0.47;;;11.80;68.70;;;;;;4981260;28;20129;-78
2023/02/14 00:07:11;;;;;;;1.75;0.50;;;11.70;68.60;;;;;;4968804;28;21438;-79
2023/02/14 00:09:37;;;;;;;0.88;0.52;;;11.70;68.70;;;;;;4980022;28;20038;-80
2023/02/14 00:12:03;;;;;;;2.15;0.50;;;11.70;68.70;;;;;;4980153;28;20035;-79
2023/02/14 00:17:14;;;;;;;2.33;0.75;;;11.70;68.50;;;;;;4979511;28;20034;-79
2023/02/14 00:19:40;;;;;;;2.60;0.45;;;11.70;68.50;;;;;;4984041;28;20031;-80
2023/02/14 00:22:06;;;;;;;3.90;0.50;;;11.80;68.60;;;;;;4983193;28;20030;-80
2023/02/14 00:24:32;;;;;;;0.95;0.50;;;11.70;68.30;;;;;;4985138;28;20457;-82
2023/02/14 00:26:58;;;;;;;1.10;0.43;;;11.70;68.30;;;;;;4984910;28;20031;-80
2023/02/14 00:29:28;;;;;;;4.20;0.80;;;11.80;68.40;;;;;;4985618;28;20073;-80
2023/02/14 00:31:54;;;;;;;1.52;0.40;;;11.70;68.30;;;;;;4997310;28;20046;-79
2023/02/14 00:34:23;;;;;;;2.25;0.70;;;11.70;68.20;;;;;;5014235;28;20043;-80
2023/02/14 00:36:49;;;;;;;1.02;0.47;;;11.80;68.30;;;;;;4987522;28;20117;-81
2023/02/14 00:39:16;;;;;;;1.70;0.77;;;11.70;68.20;;;;;;4997801;28;20056;-80
2023/02/14 00:41:43;;;;;;;0.77;0.55;;;11.70;68.20;;;;;;4983252;28;20049;-80
2023/02/14 00:44:10;;;;;;;3.83;0.50;;;11.70;68.30;;;;;;4984424;28;20034;-80
2023/02/14 00:46:38;;;;;;;1.23;0.63;;;11.80;68.20;;;;;;4982998;28;20511;-80
2023/02/14 00:49:04;;;;;;;4.28;0.60;;;11.80;68.10;;;;;;4982207;28;20256;-80
2023/02/14 00:51:30;;;;;;;1.00;0.40;;;11.70;68.00;;;;;;4986795;28;20221;-79
2023/02/14 00:53:56;;;;;;;1.20;0.63;;;11.80;68.00;;;;;;4981867;28;20067;-79
2023/02/14 00:56:22;;;;;;;1.00;0.45;;;11.70;67.80;;;;;;4969406;28;20031;-79
2023/02/14 00:58:48;;;;;;;1.23;0.40;;;11.80;67.80;;;;;;4984120;28;20126;-79
2023/02/14 01:01:18;;;;;;;1.73;0.60;;;11.70;67.70;;;;;;4970231;28;20410;-81
2023/02/14 01:03:44;;;;;;;1.65;0.50;;;11.70;67.70;;;;;;5012676;28;20042;-79
2023/02/14 01:06:10;;;;;;;1.73;0.50;;;11.70;67.70;;;;;;4983957;28;20959;-79
2023/02/14 01:08:36;;;;;;;0.88;0.40;;;11.70;67.70;;;;;;4981942;28;20034;-80
2023/02/14 01:11:15;;;;;;;1.35;0.65;;;11.70;67.60;;;;;;4981590;28;20093;-80
2023/02/14 01:13:42;;;;;;;1.60;0.63;;;11.70;67.60;;;;;;4954206;28;20506;-80
2023/02/14 01:16:11;;;;;;;0.90;0.40;;;11.70;67.50;;;;;;4983635;28;20413;-79
2023/02/14 01:18:38;;;;;;;1.13;0.40;;;11.70;67.50;;;;;;4982357;28;20034;-80
2023/02/14 01:21:21;;;;;;;1.75;0.65;;;11.70;67.50;;;;;;4999129;28;20513;-81
2023/02/14 01:23:50;;;;;;;1.33;0.50;;;11.70;67.40;;;;;;4995989;28;20049;-79
2023/02/14 01:26:19;;;;;;;2.03;0.60;;;11.70;67.40;;;;;;4983566;28;20521;-79
2023/02/14 01:28:46;;;;;;;1.05;0.50;;;11.70;67.50;;;;;;4996024;28;20453;-80
2023/02/14 01:31:22;;;;;;;1.42;0.57;;;11.70;67.50;;;;;;4981714;28;20046;-81
2023/02/14 01:33:49;;;;;;;0.30;0.22;;;11.70;67.40;;;;;;4969740;28;20121;-83
2023/02/14 01:36:36;;;;;;;0.98;0.43;;;11.70;67.40;;;;;;4981528;28;20050;-83
2023/02/14 01:39:13;;;;;;;2.80;0.60;;;11.70;67.40;;;;;;4970579;28;20545;-82
2023/02/14 01:41:42;;;;;;;1.08;0.50;;;11.70;67.40;;;;;;5012984;28;20407;-82
2023/02/14 01:44:14;;;;;;;2.58;0.82;;;11.70;67.40;;;;;;4979549;28;20035;-79
2023/02/14 01:46:41;;;;;;;0.68;0.40;;;11.70;67.30;;;;;;4982174;28;20035;-81
2023/02/14 01:49:19;;;;;;;2.60;0.65;;;11.70;67.30;;;;;;4968022;28;20464;-80
2023/02/14 01:51:56;;;;;;;1.45;0.50;;;11.70;67.30;;;;;;4996476;28;20034;-80
2023/02/14 01:54:26;;;;;;;0.93;0.40;;;11.70;67.30;;;;;;4983475;28;20450;-81
2023/02/14 01:56:57;;;;;;;1.35;0.65;;;11.70;67.30;;;;;;4978896;28;20041;-80
2023/02/14 01:59:29;;;;;;;1.90;0.60;;;11.70;67.40;;;;;;4969580;28;20034;-80
2023/02/14 02:01:55;;;;;;;1.40;0.45;;;11.70;67.30;;;;;;4997087;28;20038;-81
2023/02/14 02:04:27;;;;;;;1.08;0.50;;;11.70;67.20;;;;;;4979770;28;20035;-81
2023/02/14 02:07:02;;;;;;;1.50;0.73;;;11.70;67.10;;;;;;5014453;28;20043;-81
2023/02/14 02:09:31;;;;;;;1.13;0.60;;;11.70;67.00;;;;;;4996174;28;20034;-81
2023/02/14 02:11:58;;;;;;;0.82;0.55;;;11.70;66.90;;;;;;4981419;28;20038;-80
2023/02/14 02:14:24;;;;;;;1.00;0.50;;;11.70;66.80;;;;;;4995274;28;20097;-78
2023/02/14 02:17:02;;;;;;;0.98;0.57;;;11.70;66.70;;;;;;4985635;28;20603;-79
2023/02/14 02:20:01;;;;;;;1.48;0.50;;;11.70;66.70;;;;;;5014314;28;20046;-81
2023/02/14 02:23:04;;;;;;;0.80;0.68;;;11.70;66.70;;;;;;5000992;28;20039;-80
2023/02/14 02:26:19;;;;;;;0.77;0.50;;;11.70;66.60;;;;;;4980927;28;20031;-79
2023/02/14 02:28:54;;;;;;;1.70;0.47;;;11.70;66.50;;;;;;5013377;28;20081;-80
2023/02/14 02:31:44;;;;;;;1.38;0.63;;;11.70;66.60;;;;;;4984397;28;20473;-80
2023/02/14 02:34:29;;;;;;;1.83;0.47;;;11.70;66.60;;;;;;4996220;28;20055;-80
2023/02/14 02:37:18;;;;;;;1.10;0.43;;;11.70;66.60;;;;;;4985060;28;21126;-80
2023/02/14 02:39:59;;;;;;;1.63;0.50;;;11.70;66.40;;;;;;4996090;28;20495;-80
2023/02/14 02:43:04;;;;;;;1.27;0.70;;;11.60;66.40;;;;;;4981236;28;20054;-80
2023/02/14 02:48:51;;;;;;;0.80;0.30;;;11.60;66.60;;;;;;4890407;29;20036;-84
2023/02/14 02:54:18;;;;;;;;;;;11.60;66.40;;;;;;4907707;29;20096;-81
2023/02/14 02:56:56;;;;;;;0.60;0.28;;;11.70;66.50;;;;;;4907213;29;19925;-81
2023/02/14 02:59:29;;;;;;;1.90;0.75;;;11.60;66.40;;;;;;4906898;29;20036;-80
2023/02/14 03:02:18;;;;;;;1.60;0.82;;;11.70;66.40;;;;;;4891095;29;20047;-79
2023/02/14 03:04:52;;;;;;;0.70;0.70;;;11.60;66.50;;;;;;4891142;29;20084;-81
2023/02/14 03:07:34;;;;;;;1.90;0.50;;;11.60;66.60;;;;;;4906703;29;20140;-81
2023/02/14 03:10:11;;;;;;;1.67;0.68;;;11.70;66.70;;;;;;4907298;29;20067;-80
2023/02/14 03:13:01;;;;;;;1.60;0.77;;;11.60;66.60;;;;;;4906842;29;20036;-80
2023/02/14 03:15:50;;;;;;;2.38;0.50;;;11.60;66.40;;;;;;4903364;28;20034;-81
2023/02/14 03:18:38;;;;;;;2.28;0.50;;;11.70;66.40;;;;;;5013860;28;20035;-81
2023/02/14 03:21:36;;;;;;;0.90;0.32;;;11.60;66.30;;;;;;4980447;28;20050;-80
2023/02/14 03:24:14;;;;;;;0.75;0.47;;;11.60;66.30;;;;;;4889445;29;20047;-79
2023/02/14 03:26:47;;;;;;;1.85;0.63;;;11.70;66.20;;;;;;4906229;29;20071;-81
2023/02/14 03:29:19;;;;;;;1.95;0.30;;;11.60;66.00;;;;;;4902168;29;20056;-80
2023/02/14 03:31:57;;;;;;;0.80;0.30;;;11.60;66.00;;;;;;4906593;29;20036;-81
2023/02/14 03:34:35;;;;;;;1.52;0.85;;;11.60;65.90;;;;;;4875968;29;20072;-81
2023/02/14 03:37:17;;;;;;;1.90;0.60;;;11.70;65.80;;;;;;4870071;29;20548;-80
2023/02/14 03:40:01;;;;;;;2.35;0.60;;;11.60;65.70;;;;;;4891076;29;20048;-84
2023/02/14 03:42:35;;;;;;;1.25;0.60;;;11.60;65.70;;;;;;4879038;29;20050;-88
2023/02/14 03:45:05;;;;;;;1.00;0.43;;;11.60;65.60;;;;;;4886896;29;20120;-84
2023/02/14 03:47:34;;;;;;;1.52;0.70;;;11.60;65.60;;;;;;4901006;29;20054;-80
2023/02/14 03:50:15;;;;;;;2.38;0.70;;;11.60;65.70;;;;;;4903255;29;20131;-86
2023/02/14 03:52:42;;;;;;;1.30;0.70;;;11.60;65.80;;;;;;4906556;29;20040;-87
2023/02/14 03:55:10;;;;;;;1.45;0.70;;;11.60;65.90;;;;;;4888171;29;20036;-88
2023/02/14 03:57:50;;;;;;;1.92;0.80;;;11.60;65.80;;;;;;4891619;29;20042;-83
2023/02/14 04:00:17;;;;;;;1.58;0.80;;;11.60;65.90;;;;;;4924806;28;20045;-86
2023/02/14 04:02:55;;;;;;;2.08;0.80;;;11.50;65.90;;;;;;4984068;28;20533;-84
2023/02/14 04:05:26;;;;;;;1.38;0.63;;;11.50;65.90;;;;;;4982488;28;20027;-80
2023/02/14 04:07:55;;;;;;;2.53;1.17;;;11.60;66.00;;;;;;4983466;28;20085;-79
2023/02/14 04:10:22;;;;;;;2.25;0.77;;;11.60;66.10;;;;;;4985555;28;20437;-79
2023/02/14 04:12:48;;;;;;;1.70;0.80;;;11.60;66.10;;;;;;5014222;28;20449;-75
2023/02/14 04:15:15;;;;;;;1.13;0.70;;;11.50;66.10;;;;;;4983227;28;20045;-75
2023/02/14 04:20:26;;;;;;;1.80;1.10;;;11.60;66.00;;;;;;4981557;28;20042;-78
2023/02/14 04:22:52;;;;;;;1.55;0.95;;;11.50;65.80;;;;;;4982503;28;20065;-77
2023/02/14 04:25:19;;;;;;;1.27;0.80;;;11.50;65.70;;;;;;4984278;28;20093;-77
2023/02/14 04:27:46;;;;;;;2.47;0.77;;;11.50;65.50;;;;;;4997040;28;20030;-77
2023/02/14 04:30:13;;;;;;;1.73;0.85;;;11.60;65.40;;;;;;4982681;28;20376;-76
2023/02/14 04:32:40;;;;;;;0.85;0.63;;;11.50;65.20;;;;;;4984592;28;20035;-78
2023/02/14 04:35:06;;;;;;;0.88;0.60;;;11.50;65.20;;;;;;4983621;28;20034;-77
2023/02/14 04:37:33;;;;;;;3.67;1.13;;;11.50;65.30;;;;;;4986544;28;20517;-79
2023/02/14 04:39:59;;;;;;;2.97;1.10;;;11.50;65.90;;;;;;4985156;28;20117;-79
2023/02/14 04:42:25;;;;;;;3.67;1.42;;;11.50;66.40;;;;;;4982788;28;20034;-79
2023/02/14 04:44:51;;;;;;;3.08;1.30;;;11.50;67.00;;;;;;4985190;28;20165;-79
2023/02/14 04:47:17;;;;;;;4.13;1.90;;;11.50;67.70;;;;;;5020965;28;20030;-77
2023/02/14 04:49:43;;;;;;;7.13;2.08;;;11.50;68.20;;;;;;4983485;28;20578;-79
2023/02/14 04:52:09;;;;;;;4.20;2.10;;;11.50;68.70;;;;;;4990460;28;20038;-78
2023/02/14 04:54:34;;;;;;;4.45;2.00;;;11.50;69.00;;;;;;4993224;28;20421;-76
2023/02/14 04:57:00;;;;;;;5.38;2.28;;;11.50;69.30;;;;;;4984483;28;20045;-77
2023/02/14 04:59:26;;;;;;;5.97;2.08;;;11.50;69.60;;;;;;4981048;28;20082;-78
2023/02/14 05:01:53;;;;;;;6.30;2.53;;;11.50;69.80;;;;;;4968297;28;20093;-77
2023/02/14 05:04:19;;;;;;;7.45;2.58;;;11.50;70.00;;;;;;4983425;28;20038;-76
2023/02/14 05:06:45;;;;;;;5.32;2.22;;;11.50;69.80;;;;;;4982382;28;20505;-76
2023/02/14 05:09:11;;;;;;;6.50;2.20;;;11.60;70.00;;;;;;4981930;28;20054;-74
2023/02/14 05:11:37;;;;;;;6.43;2.10;;;11.50;70.30;;;;;;4982418;28;20460;-77
2023/02/14 05:14:03;;;;;;;6.22;2.38;;;11.50;70.50;;;;;;4983540;28;20391;-77
2023/02/14 05:16:29;;;;;;;6.57;2.00;;;11.50;70.50;;;;;;4981028;28;20232;-77
2023/02/14 05:18:55;;;;;;;4.85;1.83;;;11.60;70.40;;;;;;4980380;28;20073;-76
2023/02/14 05:21:21;;;;;;;4.32;1.70;;;11.50;70.20;;;;;;4983203;28;20045;-77
2023/02/14 05:23:47;;;;;;;4.38;1.80;;;11.60;70.00;;;;;;4981268;28;20105;-77
2023/02/14 05:26:13;;;;;;;5.38;1.88;;;11.60;69.80;;;;;;4982088;28;20061;-77
2023/02/14 05:28:39;;;;;;;7.28;1.80;;;11.60;69.70;;;;;;5013944;28;20038;-77
2023/02/14 05:31:06;;;;;;;7.18;1.70;;;11.60;69.60;;;;;;4981514;28;20034;-77
2023/02/14 05:33:32;;;;;;;2.28;1.20;;;11.60;69.30;;;;;;4983615;28;20034;-76
2023/02/14 05:35:59;;;;;;;3.40;1.25;;;11.60;69.10;;;;;;4984918;28;20432;-77
2023/02/14 05:38:25;;;;;;;3.25;1.67;;;11.60;69.10;;;;;;4983755;28;20035;-78
2023/02/14 05:40:51;;;;;;;4.28;1.50;;;11.60;69.00;;;;;;4980953;28;20034;-76
2023/02/14 05:43:17;;;;;;;3.13;1.50;;;11.60;68.90;;;;;;4983185;28;20031;-77
2023/02/14 05:45:43;;;;;;;3.22;0.95;;;11.60;68.60;;;;;;4980633;28;20041;-77
2023/02/14 05:48:09;;;;;;;2.25;1.20;;;11.60;68.40;;;;;;4982527;28;20115;-78
2023/02/14 05:50:35;;;;;;;4.03;1.67;;;11.60;68.30;;;;;;4982038;28;20046;-76
2023/02/14 05:53:01;;;;;;;2.38;1.27;;;11.60;68.30;;;;;;4981035;28;20070;-76
2023/02/14 05:55:27;;;;;;;5.07;1.20;;;11.60;68.10;;;;;;4982275;28;20382;-75
2023/02/14 05:57:54;;;;;;;4.40;1.50;;;11.60;68.00;;;;;;4981720;28;20082;-77
2023/02/14 06:00:21;;;;;;;2.65;0.70;;;11.60;67.90;;;;;;4980852;28;20034;-76
2023/02/14 06:02:46;;;;;;;4.40;1.33;;;11.60;67.80;;;;;;4976002;28;20034;-78
2023/02/14 06:05:14;;;;;;;2.30;1.10;;;11.70;67.80;;;;;;5012119;28;20045;-77
2023/02/14 06:07:42;;;;;;;2.30;1.00;;;11.70;67.70;;;;;;4985025;28;20031;-77
2023/02/14 06:10:08;;;;;;;1.83;0.95;;;11.70;67.60;;;;;;4981680;28;20030;-76
2023/02/14 06:12:34;;;;;;;2.78;1.08;;;11.70;67.30;;;;;;4980728;28;20033;-76
2023/02/14 06:15:00;;;;;;;27.88;13.68;;;11.60;64.10;;;;;;4983731;28;20042;-77
2023/02/14 06:17:26;;;;;;;17.73;9.70;;;11.40;62.20;;;;;;4968300;28;20058;-77
2023/02/14 06:19:52;;;;;;;12.15;4.93;;;11.30;61.40;;;;;;4983010;28;20042;-76
2023/02/14 06:22:18;;;;;;;6.38;3.38;;;11.20;61.40;;;;;;4981216;28;20041;-78
2023/02/14 06:24:44;;;;;;;3.10;1.70;;;11.10;61.20;;;;;;4981065;28;20038;-78
2023/02/14 06:27:10;;;;;;;2.65;1.10;;;11.00;61.30;;;;;;4980937;28;20528;-77
2023/02/14 06:29:36;;;;;;;3.25;1.38;;;10.80;61.30;;;;;;4980315;28;20085;-77
2023/02/14 06:32:05;;;;;;;2.80;1.00;;;10.70;61.30;;;;;;4979922;28;20042;-77
2023/02/14 06:34:33;;;;;;;2.17;1.23;;;10.70;61.40;;;;;;4980874;28;20231;-76
2023/02/14 06:36:59;;;;;;;3.22;1.30;;;10.60;61.60;;;;;;4981657;28;20038;-77
2023/02/14 06:39:26;;;;;;;1.85;0.95;;;10.50;61.70;;;;;;4981630;28;20030;-77
2023/02/14 06:41:52;;;;;;;2.47;1.00;;;10.40;62.00;;;;;;5013939;28;20044;-77
2023/02/14 06:44:17;;;;;;;2.53;0.75;;;10.40;61.90;;;;;;4995035;28;20513;-77
2023/02/14 06:46:43;;;;;;;2.45;1.00;;;10.30;61.70;;;;;;4980060;28;20494;-77
2023/02/14 06:49:10;;;;;;;1.23;0.60;;;10.20;61.60;;;;;;4978963;28;20093;-77
2023/02/14 06:51:35;;;;;;;1.80;0.77;;;10.20;61.70;;;;;;4978103;28;20359;-76
2023/02/14 06:54:01;;;;;;;3.75;0.90;;;10.10;62.00;;;;;;4980923;28;20026;-77
2023/02/14 06:56:28;;;;;;;1.95;0.73;;;10.10;62.10;;;;;;4980214;28;20039;-76
2023/02/14 06:58:53;;;;;;;1.75;0.60;;;10.00;62.30;;;;;;4979822;28;20038;-76
2023/02/14 07:01:19;;;;;;;1.05;0.70;;;9.90;62.40;;;;;;4979794;28;20034;-77
2023/02/14 07:03:45;;;;;;;1.42;0.75;;;9.90;62.60;;;;;;4980028;28;20040;-77
2023/02/14 07:06:11;;;;;;;3.38;1.00;;;9.90;62.70;;;;;;4979156;28;20037;-77
2023/02/14 07:08:37;;;;;;;0.95;0.50;;;9.90;62.90;;;;;;4981403;28;20517;-76
2023/02/14 07:11:03;;;;;;;1.58;0.60;;;9.80;62.90;;;;;;4979570;28;20042;-77
2023/02/14 07:13:29;;;;;;;1.48;0.60;;;9.80;62.90;;;;;;4979775;28;20031;-76
2023/02/14 07:15:55;;;;;;;0.95;0.50;;;9.70;62.80;;;;;;4979260;28;20539;-77
2023/02/14 07:18:21;;;;;;;2.67;0.70;;;9.70;63.10;;;;;;4980405;28;20085;-77
2023/02/14 07:20:51;;;;;;;1.77;0.60;;;9.70;63.30;;;;;;4983224;28;20046;-77
2023/02/14 07:23:17;;;;;;;2.75;0.60;;;9.60;63.30;;;;;;4979214;28;20586;-80
2023/02/14 07:25:44;;;;;;;1.50;0.60;;;;;;;;;;4976124;28;20121;-86
2023/02/14 07:28:10;;;;;;;0.98;0.40;;;9.60;63.20;;;;;;4983519;28;20454;-84
2023/02/14 07:30:36;;;;;;;1.15;0.50;;;9.60;64.60;;;;;;4984082;28;20061;-83
2023/02/14 07:33:02;;;;;;;1.77;0.68;;;9.70;65.30;;;;;;4985927;28;20042;-87
2023/02/14 07:35:28;;;;;;;2.85;0.52;;;9.80;65.90;;;;;;4986735;28;20035;-84
2023/02/14 07:37:54;;;;;;;1.38;0.70;;;9.90;66.10;;;;;;4982374;28;20041;-87
2023/02/14 07:40:20;;;;;;;1.60;0.63;;;10.00;66.30;;;;;;4983364;28;20041;-85
2023/02/14 07:42:56;;;;;;;0.93;0.60;;;10.10;66.40;;;;;;4985052;28;20039;-89
2023/02/14 07:45:22;;;;;;;0.63;0.40;;;10.20;66.30;;;;;;4984046;28;20173;-90
2023/02/14 07:47:51;;;;;;;2.30;0.60;;;10.20;66.20;;;;;;4998334;28;20416;-89
2023/02/14 07:50:18;;;;;;;1.83;0.73;;;10.30;66.20;;;;;;4982936;28;20034;-87
2023/02/14 07:52:44;;;;;;;1.95;0.60;;;10.40;66.40;;;;;;4978603;28;20047;-87
2023/02/14 07:55:11;;;;;;;0.60;0.60;;;10.50;66.50;;;;;;4979524;28;20034;-87
2023/02/14 07:57:37;;;;;;;0.93;0.45;;;10.50;66.50;;;;;;4981697;28;20027;-89
2023/02/14 08:00:04;;;;;;;2.22;0.52;;;10.60;66.50;;;;;;4983130;28;20030;-91
2023/02/14 08:02:37;;;;;;;1.40;0.50;;;10.70;66.50;;;;;;4979782;28;20042;-85
2023/02/14 08:05:04;;;;;;;1.40;0.60;;;10.70;66.40;;;;;;4981403;28;20034;-84
2023/02/14 08:07:29;;;;;;;1.83;0.40;;;10.80;67.00;;;;;;4993407;28;20031;-84
2023/02/14 08:09:55;;;;;;;1.55;0.65;;;10.90;66.40;;;;;;4965443;28;20045;-85
2023/02/14 08:17:50;;;;;;;0.95;0.52;;;11.00;66.10;;;;;;4980908;28;20069;-88
2023/02/14 08:20:16;;;;;;;0.77;0.40;;;11.10;66.10;;;;;;4981293;28;20054;-89
2023/02/14 08:22:42;;;;;;;1.30;0.50;;;11.10;66.00;;;;;;4983856;28;20125;-87
2023/02/14 08:25:08;;;;;;;0.28;0.28;;;11.20;65.90;;;;;;4982734;28;20085;-77
2023/02/14 08:27:34;;;;;;;3.30;0.63;;;11.20;65.80;;;;;;4979932;28;20026;-84
2023/02/14 08:30:00;;;;;;;0.45;0.30;;;11.20;65.70;;;;;;4979429;28;20089;-85
2023/02/14 08:32:26;;;;;;;1.67;0.57;;;11.30;65.70;;;;;;4981531;28;20496;-85
2023/02/14 08:34:52;;;;;;;0.65;0.30;;;11.30;65.60;;;;;;4980757;28;20072;-83
2023/02/14 08:37:18;;;;;;;1.85;0.40;;;11.40;65.50;;;;;;4981894;28;20496;-89
2023/02/14 08:39:44;;;;;;;0.90;0.40;;;11.40;65.40;;;;;;4982375;28;20030;-88
2023/02/14 08:42:10;;;;;;;0.98;0.40;;;11.50;65.30;;;;;;4982823;28;20089;-88
2023/02/14 08:44:36;;;;;;;1.10;0.60;;;11.50;65.20;;;;;;4984392;28;20480;-88
2023/02/14 08:47:02;;;;;;;1.48;0.50;;;11.50;65.00;;;;;;4980865;28;20069;-82
2023/02/14 08:49:28;;;;;;;1.15;0.50;;;11.60;65.40;;;;;;4980232;28;20041;-79
2023/02/14 08:51:54;;;;;;;2.47;0.50;;;11.60;65.80;;;;;;4980478;28;20030;-87
2023/02/14 08:54:20;;;;;;;1.27;0.73;;;11.70;65.70;;;;;;4981430;28;20038;-80
2023/02/14 08:56:47;;;;;;;1.10;0.60;;;11.70;65.40;;;;;;4980657;28;20034;-84
2023/02/14 08:59:13;;;;;;;1.45;0.50;;;11.80;65.20;;;;;;4982842;28;20161;-84
2023/02/14 09:01:39;;;;;;;1.55;0.88;;;11.80;65.00;;;;;;4978370;28;20136;-83
2023/02/14 09:04:05;;;;;;;3.17;1.50;;;11.80;64.80;;;;;;4977299;28;20039;-85
2023/02/14 09:06:32;;;;;;;3.90;1.90;;;11.90;64.70;;;;;;4978827;28;20035;-85
2023/02/14 09:08:57;;;;;;;4.25;1.58;;;11.90;64.50;;;;;;4981119;28;20043;-86
2023/02/14 09:11:24;;;;;;;5.45;2.05;;;11.90;64.40;;;;;;4978655;28;20956;-80
2023/02/14 09:13:52;;;;;;;7.90;2.10;;;12.00;64.30;;;;;;4978941;28;20038;-86
2023/02/14 09:16:19;;;;;;;6.57;2.40;;;12.00;64.10;;;;;;4979609;28;20061;-84
2023/02/14 09:18:46;;;;;;;5.80;2.35;;;12.00;64.00;;;;;;4980409;28;20038;-86
2023/02/14 09:21:16;;;;;;;10.93;2.35;;;12.00;63.90;;;;;;4980955;28;20145;-85
2023/02/14 09:23:42;;;;;;;10.27;2.60;;;12.10;63.90;;;;;;4981452;28;20049;-86
2023/02/14 09:26:10;;;;;;;10.70;2.80;;;12.10;63.90;;;;;;4980740;28;20035;-84
2023/02/14 09:28:37;;;;;;;9.73;2.63;;;12.10;63.90;;;;;;4981347;28;20042;-86
2023/02/14 09:31:12;;;;;;;12.23;2.72;;;12.20;63.90;;;;;;5010069;28;20042;-83
2023/02/14 09:39:08;;;;;;;10.15;2.83;;;12.20;63.90;;;;;;4967658;28;20497;-83
2023/02/14 09:41:59;;;;;;;10.07;3.17;;;12.20;63.90;;;;;;4983031;28;20121;-88
2023/02/14 09:44:42;;;;;;;8.95;3.05;;;12.10;64.00;;;;;;5009887;28;20034;-86
2023/02/14 09:47:33;;;;;;;8.35;2.38;;;12.10;64.10;;;;;;5010583;28;20475;-79
2023/02/14 09:49:59;;;;;;;10.60;2.60;;;12.20;64.30;;;;;;5009769;28;20038;-88
2023/02/14 09:52:29;;;;;;;11.20;2.90;;;12.20;65.10;;;;;;4981070;28;20141;-86
2023/02/14 09:54:59;;;;;;;10.20;2.85;;;12.20;64.50;;;;;;4977891;28;20401;-85
2023/02/14 09:57:40;;;;;;;8.32;2.20;;;12.20;64.60;;;;;;4981182;28;20034;-81
2023/02/14 10:00:16;;;;;;;6.55;2.08;;;12.20;64.60;;;;;;4978403;28;20046;-85
2023/02/14 10:03:00;;;;;;;5.93;1.80;;;12.30;64.60;;;;;;4976178;28;20031;-84
2023/02/14 10:05:46;;;;;;;6.32;2.20;;;12.30;64.40;;;;;;4967243;28;20551;-87
2023/02/14 10:08:33;;;;;;;7.97;2.45;;;12.30;64.40;;;;;;4978227;28;20051;-81
2023/02/14 10:11:14;;;;;;;9.82;2.17;;;12.30;64.30;;;;;;4980294;28;20049;-87
2023/02/14 10:13:45;;;;;;;6.13;2.10;;;12.30;64.30;;;;;;4979657;28;20039;-81
2023/02/14 10:16:28;;;;;;;9.75;2.10;;;12.40;64.30;;;;;;5012444;28;20434;-81
2023/02/14 10:19:05;;;;;;;7.03;1.90;;;12.40;64.30;;;;;;4981300;28;20034;-82
2023/02/14 10:22:00;;;;;;;7.00;1.85;;;12.40;64.20;;;;;;4974803;28;20039;-80
2023/02/14 10:24:29;;;;;;;6.85;1.80;;;12.50;64.30;;;;;;4978986;28;20218;-83
2023/02/14 10:27:02;;;;;;;7.22;1.95;;;12.50;64.20;;;;;;4978352;28;20154;-87
2023/02/14 10:29:29;;;;;;;7.03;1.98;;;12.50;64.10;;;;;;4981633;28;20054;-82
2023/02/14 10:32:00;;;;;;;6.03;1.65;;;12.50;64.10;;;;;;5010695;28;20237;-85
2023/02/14 10:34:35;;;;;;;6.13;1.67;;;12.50;64.00;;;;;;4978913;28;20034;-86
2023/02/14 10:37:33;;;;;;;5.97;1.48;;;12.50;63.90;;;;;;4980302;28;20045;-83
2023/02/14 10:40:29;;;;;;;8.10;1.60;;;12.60;63.90;;;;;;4979175;28;20053;-87
2023/02/14 10:43:14;;;;;;;5.20;1.67;;;12.60;63.30;;;;;;4979335;28;20045;-79
2023/02/14 10:45:48;;;;;;;5.15;1.88;;;12.70;63.70;;;;;;4979135;28;20030;-79
2023/02/14 10:48:29;;;;;;;3.22;1.45;;;12.70;63.60;;;;;;4978330;28;20037;-80
2023/02/14 10:51:30;;;;;;;4.97;1.90;;;12.70;63.60;;;;;;4974438;28;20030;-81
2023/02/14 10:54:14;;;;;;;4.35;1.27;;;12.70;63.50;;;;;;4903546;29;20036;-79
2023/02/14 10:57:03;;;;;;;5.45;1.60;;;12.70;63.60;;;;;;4904094;29;20582;-81
2023/02/14 10:59:56;;;;;;;7.70;1.90;;;12.70;63.60;;;;;;4903836;29;20040;-78
2023/02/14 11:02:36;;;;;;;3.60;1.27;;;12.70;63.60;;;;;;4901459;29;20040;-80
2023/02/14 11:05:04;;;;;;;6.70;1.75;;;12.70;63.60;;;;;;4904224;29;20059;-80
2023/02/14 11:07:31;;;;;;;6.07;1.55;;;12.70;63.60;;;;;;4919054;29;20142;-79
2023/02/14 11:09:57;;;;;;;3.88;1.60;;;12.70;63.60;;;;;;4903403;29;20040;-79
2023/02/14 11:12:36;;;;;;;3.53;1.40;;;12.70;63.60;;;;;;4904082;29;20044;-78
2023/02/14 11:15:20;;;;;;;5.47;1.45;;;12.70;63.70;;;;;;4919322;29;20652;-78
2023/02/14 11:17:46;;;;;;;2.55;1.15;;;12.80;63.80;;;;;;4903404;29;20040;-80
2023/02/14 11:20:18;;;;;;;3.53;1.30;;;12.70;63.70;;;;;;4919107;29;20423;-80
2023/02/14 11:22:45;;;;;;;3.65;1.30;;;12.70;63.70;;;;;;4903414;29;20431;-77
2023/02/14 11:25:26;;;;;;;4.53;1.40;;;12.70;63.70;;;;;;4903404;29;20032;-78
2023/02/14 11:27:59;;;;;;;3.03;1.35;;;12.80;63.70;;;;;;4903173;29;20032;-79
2023/02/14 11:30:35;;;;;;;1.80;1.10;;;12.70;63.70;;;;;;4943764;28;20072;-79
2023/02/14 11:33:03;;;;;;;2.53;1.40;;;12.70;63.70;;;;;;4977674;28;20043;-79
2023/02/14 11:35:33;;;;;;;2.20;0.93;;;12.70;63.70;;;;;;4963459;28;20041;-77
2023/02/14 11:38:05;;;;;;;4.68;1.40;;;12.80;63.70;;;;;;4975782;28;20046;-78
2023/02/14 11:40:32;;;;;;;1.73;0.73;;;12.80;63.70;;;;;;5009561;28;20197;-80
2023/02/14 11:43:11;;;;;;;2.90;1.10;;;12.80;63.80;;;;;;4976446;28;20482;-79
2023/02/14 11:45:40;;;;;;;3.08;1.10;;;12.80;63.80;;;;;;4975169;28;20038;-79
2023/02/14 11:48:22;;;;;;;1.83;0.90;;;12.80;63.80;;;;;;4978028;28;20400;-78
2023/02/14 11:51:13;;;;;;;2.55;1.15;;;12.80;63.80;;;;;;4978037;28;20067;-77
2023/02/14 11:53:50;;;;;;;2.83;0.98;;;12.80;63.80;;;;;;4975954;28;20077;-77
2023/02/14 11:56:19;;;;;;;3.97;1.20;;;12.80;63.80;;;;;;5008642;28;20042;-80
2023/02/14 11:58:56;;;;;;;2.67;0.98;;;12.80;63.80;;;;;;4978242;28;20049;-78
2023/02/14 12:01:26;;;;;;;2.83;1.20;;;12.80;63.80;;;;;;4976392;28;20044;-78
2023/02/14 12:03:55;;;;;;;2.17;1.00;;;12.80;63.80;;;;;;4976285;28;20145;-78
2023/02/14 12:06:28;;;;;;;2.40;1.10;;;12.80;63.70;;;;;;4978573;28;20084;-77
2023/02/14 12:09:25;;;;;;;2.15;0.80;;;12.80;63.70;;;;;;4979806;28;20382;-79
2023/02/14 12:12:00;;;;;;;1.10;0.73;;;12.80;63.80;;;;;;4973237;28;20042;-80
2023/02/14 12:14:32;;;;;;;1.75;1.10;;;12.80;63.70;;;;;;4983625;28;20517;-80
2023/02/14 12:17:03;;;;;;;1.73;0.80;;;12.80;63.80;;;;;;4978268;28;20631;-80
2023/02/14 12:19:47;;;;;;;3.03;0.80;;;12.90;63.80;;;;;;4980384;28;20736;-77
2023/02/14 12:22:35;;;;;;;2.50;0.82;;;12.90;63.70;;;;;;5013109;28;20460;-79
2023/02/14 12:25:01;;;;;;;2.55;0.80;;;12.90;63.70;;;;;;5014184;28;20034;-77
2023/02/14 12:27:42;;;;;;;1.52;0.90;;;12.90;63.70;;;;;;4983264;28;20032;-78
2023/02/14 12:30:17;;;;;;;0.85;0.60;;;12.90;63.60;;;;;;4981945;28;20065;-77
2023/02/14 12:32:49;;;;;;;0.88;0.75;;;12.90;63.60;;;;;;4994420;28;20042;-78
2023/02/14 12:35:39;;;;;;;0.93;0.70;;;12.90;63.60;;;;;;4978646;28;20035;-78
2023/02/14 12:38:11;;;;;;;1.02;0.70;;;12.90;63.60;;;;;;5011268;28;20441;-78
2023/02/14 12:41:02;;;;;;;3.33;0.77;;;12.90;63.60;;;;;;4982116;28;20031;-79
2023/02/14 12:43:49;;;;;;;1.67;0.80;;;12.90;63.60;;;;;;4980107;28;20516;-78
2023/02/14 12:46:40;;;;;;;1.63;0.90;;;12.80;63.50;;;;;;5013874;28;20604;-81
2023/02/14 12:49:18;;;;;;;1.40;0.70;;;12.80;63.50;;;;;;4979686;28;20428;-82
2023/02/14 12:52:02;;;;;;;2.95;0.80;;;12.80;63.60;;;;;;4979802;28;20452;-83
2023/02/14 12:54:42;;;;;;;0.93;0.60;;;12.80;63.60;;;;;;4981974;28;20103;-80
2023/02/14 12:57:27;;;;;;;0.70;0.60;;;12.80;63.70;;;;;;4978966;28;20030;-80
2023/02/14 13:00:11;;;;;;;1.30;0.80;;;12.80;63.60;;;;;;4995848;28;20140;-78
2023/02/14 13:03:13;;;;;;;1.13;0.80;;;12.70;63.60;;;;;;4978213;28;20038;-78
2023/02/14 13:05:57;;;;;;;1.70;1.00;;;12.80;63.70;;;;;;4980572;28;20046;-79
2023/02/14 13:08:35;;;;;;;1.23;1.10;;;12.70;63.60;;;;;;4980057;28;20042;-80
2023/02/14 13:11:27;;;;;;;2.08;0.80;;;12.80;63.80;;;;;;4979123;28;20109;-78
2023/02/14 13:14:15;;;;;;;1.33;1.20;;;12.70;63.80;;;;;;5011226;28;20146;-80
2023/02/14 13:16:50;;;;;;;2.15;0.82;;;12.70;63.80;;;;;;4982220;28;20577;-79
2023/02/14 13:19:49;;;;;;;3.28;0.82;;;12.80;63.90;;;;;;4978544;28;20030;-80
2023/02/14 13:22:21;;;;;;;2.05;0.90;;;12.70;63.90;;;;;;4979571;28;20038;-80
2023/02/14 13:24:55;;;;;;;1.63;0.93;;;12.70;63.90;;;;;;4980097;28;20413;-79
2023/02/14 13:27:24;;;;;;;1.17;0.80;;;12.70;64.00;;;;;;4980521;28;20027;-78
2023/02/14 13:29:59;;;;;;;1.20;0.90;;;12.70;63.90;;;;;;5012302;28;20061;-78
2023/02/14 13:32:31;;;;;;;0.82;0.80;;;12.70;64.00;;;;;;4994532;28;20038;-78
2023/02/14 13:34:58;;;;;;;1.45;0.80;;;12.70;64.10;;;;;;4979914;28;20039;-79
2023/02/14 13:37:26;;;;;;;1.13;0.60;;;12.70;64.20;;;;;;4978485;28;20125;-79